Time;durP1;ratioP1;P1;durP2;ratioP2;P2;SDS_P1;SDS_P2;PMS_P1;PMS_P2;Temp;Humidity;BMP_temperature;BMP_pressure;BME280_temperature;BME280_humidity;BME280_pressure;Samples;Min_cycle;Max_cycle;Signal;HPM_P1;HPM_P2
2023/04/01 00:00:12;;;;;;;;;;;11.30;91.90;;;11.67;58.36;97357.34;4930903;28;117855;-72
2023/04/01 00:02:38;;;;;;;;;;;11.40;91.90;;;11.67;58.52;97352.59;4927014;28;124400;-72
2023/04/01 00:05:05;;;;;;;;;;;11.40;91.80;;;11.67;58.60;97360.09;4928578;28;123682;-72
2023/04/01 00:07:32;;;;;;;;;;;11.40;91.80;;;11.66;58.03;97362.06;4927764;28;119483;-72
2023/04/01 00:10:01;;;;;;;;;;;11.30;91.80;;;11.64;58.53;97358.06;4929032;28;118953;-73
2023/04/01 00:12:27;;;;;;;;;;;11.30;91.80;;;11.63;58.58;97364.72;4930208;28;124146;-72
2023/04/01 00:14:58;;;;;;;;;;;11.30;91.80;;;11.61;58.61;97359.56;4928958;28;123737;-73
2023/04/01 00:17:24;;;;;;;;;;;11.30;91.90;;;11.63;58.49;97361.97;4936007;28;119146;-71
2023/04/01 00:19:51;;;;;;;;;;;11.30;91.90;;;11.62;58.87;97361.16;4932742;28;118806;-74
2023/04/01 00:22:17;;;;;;;;;;;11.30;91.90;;;11.65;58.64;97356.88;4925829;28;124152;-72
2023/04/01 00:24:43;;;;;;;;;;;11.30;91.90;;;11.66;58.50;97352.94;4926414;28;123629;-72
2023/04/01 00:27:10;;;;;;;;;;;11.30;91.90;;;11.68;58.59;97353.41;4926859;28;119799;-72
2023/04/01 00:29:36;;;;;;;;;;;11.30;92.00;;;11.67;58.71;97351.81;4925643;28;118633;-72
2023/04/01 00:32:03;;;;;;;;;;;11.30;92.00;;;11.68;58.55;97356.16;4926682;28;124518;-73
2023/04/01 00:34:29;;;;;;;;;;;11.30;92.00;;;11.66;58.43;97359.31;4926459;28;123972;-73
2023/04/01 00:36:55;;;;;;;;;;;11.30;92.00;;;11.66;58.85;97355.72;4934332;28;120793;-73
2023/04/01 00:39:22;;;;;;;;;;;11.30;92.00;;;11.65;58.77;97362.41;4932005;28;120288;-73
2023/04/01 00:41:48;;;;;;;;;;;11.30;92.00;;;11.66;58.74;97366.78;4926046;28;124179;-73
2023/04/01 00:44:17;;;;;;;;;;;11.30;92.00;;;11.67;58.59;97371.19;4926976;28;123995;-73
2023/04/01 00:46:44;;;;;;;;;;;11.30;92.00;;;11.68;58.59;97364.47;4926379;28;120163;-72
2023/04/01 00:49:10;;;;;;;;;;;11.30;91.90;;;11.69;58.61;97363.34;4930536;28;119111;-73
2023/04/01 00:51:37;;;;;;;;;;;11.30;92.00;;;11.68;58.72;97370.00;4924604;28;124505;-73
2023/04/01 00:54:04;;;;;;;;;;;11.30;91.90;;;11.67;58.51;97365.63;4929102;28;124661;-73
2023/04/01 00:56:36;;;;;;;;;;;11.40;92.00;;;11.68;58.59;97373.56;4926446;28;120986;-73
2023/04/01 00:59:25;;;;;;;;;;;11.40;92.10;;;11.69;59.19;97371.63;4909959;28;118743;-72
2023/04/01 01:01:54;;;;;;;;;;;11.40;92.10;;;11.69;58.88;97377.16;4915777;28;123157;-73
2023/04/01 01:04:29;;;;;;;;;;;11.40;92.10;;;11.70;58.92;97367.69;4921064;28;123948;-72
2023/04/01 01:07:20;;;;;;;;;;;11.40;92.30;;;11.70;59.19;97373.22;4926907;28;119521;-73
2023/04/01 01:10:05;;;;;;;;;;;11.40;92.30;;;11.69;59.54;97372.44;4931438;28;118245;-73
2023/04/01 01:12:50;;;;;;;;;;;11.30;92.50;;;11.67;59.24;97369.22;4915153;28;124431;-73
2023/04/01 01:15:31;;;;;;;;;;;11.40;92.50;;;11.69;59.42;97366.09;4927086;28;124261;-73
2023/04/01 01:18:27;;;;;;;;;;;11.40;92.50;;;11.67;59.67;97360.91;4929771;28;119324;-72
2023/04/01 01:21:20;;;;;;;;;;;11.40;92.60;;;11.67;59.95;97362.88;4929342;28;118784;-73
2023/04/01 01:23:57;;;;;;;;;;;11.40;92.60;;;11.66;60.07;97356.53;4932111;28;124759;-72
2023/04/01 01:26:36;;;;;;;;;;;11.40;92.70;;;11.66;59.82;97364.00;4932581;28;123667;-73
2023/04/01 01:29:46;;;;;;;;;;;11.40;92.80;;;11.65;59.91;97360.44;4927628;28;120455;-73
2023/04/01 01:32:47;;;;;;;;;;;11.30;92.80;;;11.65;60.36;97362.41;4927770;28;119575;-74
2023/04/01 01:35:13;;;;;;;;;;;11.30;93.00;;;11.63;60.59;97367.50;4929212;28;124787;-73
2023/04/01 01:37:40;;;;;;;;;;;11.30;93.10;;;11.62;60.33;97371.44;4947110;28;123798;-74
2023/04/01 01:40:10;;;;;;;;;;;11.30;93.00;;;11.63;60.50;97361.97;4927744;28;119456;-73
2023/04/01 01:42:39;;;;;;;;;;;11.30;93.00;;;11.62;60.50;97371.44;4926609;28;118876;-73
2023/04/01 01:45:06;;;;;;;;;;;11.30;93.00;;;11.62;60.54;97371.44;4921590;28;124104;-73
2023/04/01 01:47:35;;;;;;;;;;;11.30;93.20;;;11.61;60.98;97364.31;4905932;28;123374;-73
2023/04/01 01:50:03;;;;;;;;;;;11.30;93.30;;;11.59;60.81;97383.22;4930173;28;119447;-73
2023/04/01 01:52:29;;;;;;;;;;;11.20;93.40;;;11.55;60.80;97368.47;4929490;28;119397;-73
2023/04/01 01:54:57;;;;;;;;;;;11.20;93.40;;;11.53;61.18;97363.31;4926612;28;124800;-73
2023/04/01 01:57:26;;;;;;;;;;;11.20;93.40;;;11.52;61.28;97377.47;4928600;28;124112;-72
2023/04/01 01:59:57;;;;;;;;;;;11.20;93.50;;;11.48;61.49;97364.34;4925897;28;119420;-74
2023/04/01 02:02:24;;;;;;;;;;;11.20;93.50;;;11.46;61.70;97374.97;4928539;28;118963;-73
2023/04/01 02:04:51;;;;;;;;;;;11.10;93.60;;;11.39;61.77;97366.50;4910420;28;124179;-75
2023/04/01 02:07:24;;;;;;;;;;;11.10;93.60;;;11.35;61.49;97357.28;4924041;28;123980;-73
2023/04/01 02:09:51;;;;;;;;;;;11.10;93.70;;;11.31;61.44;97364.69;4925951;28;119247;-73
2023/04/01 02:12:19;;;;;;;;;;;11.00;93.70;;;11.29;61.52;97353.16;4927867;28;118679;-72
2023/04/01 02:14:47;;;;;;;;;;;11.00;93.80;;;11.28;61.60;97368.13;4928290;28;124398;-73
2023/04/01 02:17:18;;;;;;;;;;;11.00;93.80;;;11.27;61.55;97361.81;4926734;28;124246;-73
2023/04/01 02:19:50;;;;;;;;;;;11.00;93.80;;;11.27;61.52;97380.34;4926720;28;120418;-73
2023/04/01 02:22:24;;;;;;;;;;;11.00;93.80;;;11.25;61.99;97363.31;4911106;28;119348;-73
2023/04/01 02:24:54;;;;;;;;;;;11.00;93.80;;;11.24;61.76;97372.78;4908491;28;124308;-73
2023/04/01 02:27:21;;;;;;;;;;;10.90;93.80;;;11.23;61.83;97371.13;4928781;28;124496;-72
2023/04/01 02:29:49;;;;;;;;;;;10.90;93.80;;;11.22;61.75;97378.63;4927702;28;119623;-73
2023/04/01 02:32:16;;;;;;;;;;;10.90;93.90;;;11.23;61.91;97377.50;4942701;28;119338;-73
2023/04/01 02:34:43;;;;;;;;;;;10.90;94.00;;;11.22;61.92;97380.59;4926591;28;124171;-73
2023/04/01 02:37:13;;;;;;;;;;;10.90;93.90;;;11.19;61.76;97364.72;4942536;28;124274;-73
2023/04/01 02:39:39;;;;;;;;;;;10.90;93.90;;;11.17;61.72;97367.03;4928298;28;119321;-73
2023/04/01 02:42:06;;;;;;;;;;;10.90;93.90;;;11.14;61.88;97365.78;4914395;28;118570;-72
2023/04/01 02:44:32;;;;;;;;;;;10.90;93.80;;;11.14;61.88;97368.53;4928680;28;124427;-72
2023/04/01 02:47:01;;;;;;;;;;;10.90;93.80;;;11.13;61.69;97366.94;4928904;28;126500;-74
2023/04/01 02:49:27;;;;;;;;;;;10.80;93.80;;;11.09;61.47;97366.00;4923145;28;119369;-73
2023/04/01 02:51:55;;;;;;;;;;;10.80;93.70;;;11.06;61.17;97364.75;4939974;28;119054;-73
2023/04/01 02:54:22;;;;;;;;;;;10.70;93.60;;;11.03;61.53;97368.22;4931370;28;123918;-72
2023/04/01 02:56:48;;;;;;;;;;;10.70;93.60;;;11.02;61.37;97363.06;4928165;28;123940;-73
2023/04/01 02:59:17;;;;;;;;;;;10.70;93.50;;;10.99;61.30;97367.34;4913360;28;119345;-73
2023/04/01 03:01:43;;;;;;;;;;;10.70;93.50;;;10.94;61.40;97359.28;4928826;28;118763;-73
2023/04/01 03:04:10;;;;;;;;;;;10.60;93.50;;;10.94;61.56;97364.81;4917089;28;123718;-73
2023/04/01 03:06:39;;;;;;;;;;;10.60;93.60;;;10.94;61.11;97369.53;4927670;28;124701;-73
2023/04/01 03:09:06;;;;;;;;;;;10.60;93.60;;;10.92;61.11;97367.13;4948285;28;119621;-72
2023/04/01 03:11:32;;;;;;;;;;;10.60;93.60;;;10.89;61.14;97370.59;4927471;28;120374;-72
2023/04/01 03:14:00;;;;;;;;;;;10.60;93.50;;;10.87;61.21;97372.88;4927799;28;126913;-72
2023/04/01 03:16:29;;;;;;;;;;;10.50;93.50;;;10.85;61.47;97377.94;4930809;28;124778;-72
2023/04/01 03:18:58;;;;;;;;;;;10.50;93.50;;;10.84;61.01;97370.81;4927526;28;119495;-72
2023/04/01 03:21:27;;;;;;;;;;;10.50;93.50;;;10.81;60.99;97366.00;4913469;28;117795;-72
2023/04/01 03:23:54;;;;;;;;;;;10.50;93.50;;;10.78;61.17;97366.69;4926146;28;124099;-72
2023/04/01 03:26:21;;;;;;;;;;;10.50;93.50;;;10.76;61.54;97357.94;4927125;28;124612;-72
2023/04/01 03:28:47;;;;;;;;;;;10.50;93.50;;;10.77;61.36;97365.06;4926661;28;119670;-72
2023/04/01 03:31:15;;;;;;;;;;;10.40;93.60;;;10.75;61.23;97364.63;4928053;28;118588;-73
2023/04/01 03:33:44;;;;;;;;;;;10.40;93.50;;;10.74;61.47;97366.56;4922532;28;124266;-72
2023/04/01 03:36:12;;;;;;;;;;;10.40;93.60;;;10.74;61.36;97374.06;4927649;28;124134;-72
2023/04/01 03:38:42;;;;;;;;;;;10.40;93.50;;;10.74;61.15;97371.31;4927887;28;119480;-72
2023/04/01 03:41:14;;;;;;;;;;;10.40;93.50;;;10.75;61.06;97367.41;4930570;28;118702;-72
2023/04/01 03:43:40;;;;;;;;;;;10.40;93.40;;;10.75;61.32;97367.41;4925442;28;124211;-72
2023/04/01 03:46:07;;;;;;;;;;;10.50;93.40;;;10.78;61.29;97361.19;4927108;28;123979;-72
2023/04/01 03:48:36;;;;;;;;;;;10.50;93.40;;;10.78;60.84;97367.50;4912913;28;118573;-73
2023/04/01 03:51:07;;;;;;;;;;;10.50;93.30;;;10.83;60.46;97369.22;4930148;28;118869;-73
2023/04/01 03:53:38;;;;;;;;;;;10.50;93.20;;;10.82;60.68;97362.06;4927391;28;123739;-73
2023/04/01 03:56:09;;;;;;;;;;;10.50;93.10;;;10.81;60.80;97357.72;4928252;28;123970;-73
2023/04/01 03:58:39;;;;;;;;;;;10.50;93.00;;;10.81;60.49;97354.94;4928982;28;120517;-76
2023/04/01 04:01:29;;;;;;;;;;;10.50;92.90;;;10.81;60.29;97363.25;4935220;28;118792;-75
2023/04/01 04:03:56;;;;;;;;;;;10.50;92.90;;;10.81;60.11;97357.72;4930321;28;124540;-75
2023/04/01 04:06:28;;;;;;;;;;;10.50;92.90;;;10.84;60.08;97351.47;4930499;28;124697;-74
2023/04/01 04:08:54;;;;;;;;;;;10.60;92.90;;;10.85;60.11;97342.03;4918375;28;119484;-75
2023/04/01 04:11:25;;;;;;;;;;;10.50;92.70;;;10.85;59.95;97350.31;4930784;28;118838;-73
2023/04/01 04:13:52;;;;;;;;;;;10.50;92.70;;;10.85;59.84;97344.78;4928925;28;124982;-73
2023/04/01 04:16:18;;;;;;;;;;;10.50;92.70;;;10.83;59.58;97352.66;4930529;28;123959;-73
2023/04/01 04:18:44;;;;;;;;;;;10.50;92.60;;;10.81;59.39;97338.38;4927082;28;119599;-72
2023/04/01 04:21:14;;;;;;;;;;;10.50;92.60;;;10.82;59.43;97351.81;4927916;28;118890;-73
2023/04/01 04:23:46;;;;;;;;;;;10.50;92.60;;;10.81;59.29;97343.91;4927113;28;124518;-71
2023/04/01 04:26:19;;;;;;;;;;;10.50;92.50;;;10.77;59.46;97343.81;4913771;28;123010;-72
2023/04/01 04:29:05;;;;;;;;;;;10.40;92.50;;;10.76;59.46;97346.91;4932341;28;119475;-74
2023/04/01 04:31:36;;;;;;;;;;;10.40;92.40;;;10.73;59.50;97345.63;4927464;28;119325;-72
2023/04/01 04:34:12;;;;;;;;;;;10.40;92.40;;;10.70;59.56;97337.25;4932223;28;124322;-73
2023/04/01 04:36:44;;;;;;;;;;;10.40;92.40;;;10.69;59.33;97336.44;4932303;28;124068;-74
2023/04/01 04:39:11;;;;;;;;;;;10.40;92.40;;;10.65;59.80;97349.34;4919678;28;119161;-73
2023/04/01 04:41:37;;;;;;;;;;;10.40;92.30;;;10.64;59.25;97346.91;4931326;28;118020;-73
2023/04/01 04:44:07;;;;;;;;;;;10.30;92.30;;;10.61;59.61;97343.72;4931754;28;124902;-73
2023/04/01 04:46:33;;;;;;;;;;;10.30;92.40;;;10.60;59.39;97349.59;4936827;28;123436;-74
2023/04/01 04:49:00;;;;;;;;;;;10.30;92.40;;;10.59;59.76;97354.31;4930314;28;119589;-72
2023/04/01 04:51:26;;;;;;;;;;;10.30;92.40;;;10.58;59.34;97354.66;4928810;28;119155;-73
2023/04/01 04:53:56;;;;;;;;;;;10.20;92.40;;;10.55;59.68;97345.09;4925222;28;122356;-73
2023/04/01 04:56:25;;;;;;;;;;;10.20;92.50;;;10.51;59.79;97335.91;4929976;28;124631;-73
2023/04/01 04:58:54;;;;;;;;;;;10.20;92.60;;;10.50;60.03;97345.34;4929531;28;119559;-73
2023/04/01 05:01:22;;;;;;;;;;;10.20;92.60;;;10.51;60.06;97341.44;4929095;28;119226;-73
2023/04/01 05:03:49;;;;;;;;;;;10.20;92.60;;;10.53;60.40;97333.63;4928135;28;123901;-74
2023/04/01 05:06:21;;;;;;;;;;;10.20;92.70;;;10.53;60.10;97338.31;4922961;28;124648;-72
2023/04/01 05:08:49;;;;;;;;;;;10.20;92.80;;;10.51;60.09;97346.97;4929828;28;119750;-73
2023/04/01 05:11:22;;;;;;;;;;;10.20;92.90;;;10.50;60.13;97333.47;4931461;28;119358;-73
2023/04/01 05:13:48;;;;;;;;;;;10.20;92.90;;;10.49;60.60;97331.88;4930830;28;124430;-73
2023/04/01 05:16:20;;;;;;;;;;;10.30;92.90;;;10.50;60.68;97330.72;4933185;28;123883;-73
2023/04/01 05:18:49;;;;;;;;;;;10.20;92.90;;;10.50;60.49;97330.72;4930087;28;119599;-75
2023/04/01 05:21:18;;;;;;;;;;;10.20;92.90;;;10.47;60.46;97337.75;4929713;28;118932;-73
2023/04/01 05:23:46;;;;;;;;;;;10.20;93.00;;;10.48;60.65;97324.78;4929312;28;124615;-73
2023/04/01 05:26:14;;;;;;;;;;;10.10;93.00;;;10.48;60.65;97322.00;4931711;28;124127;-73
2023/04/01 05:28:42;;;;;;;;;;;10.30;93.10;;;10.48;60.65;97313.72;4929573;28;120172;-73
2023/04/01 05:31:11;;;;;;;;;;;10.20;93.10;;;10.47;60.78;97315.66;4917840;28;118811;-73
2023/04/01 05:33:37;;;;;;;;;;;10.20;93.10;;;10.48;60.81;97317.28;4931212;28;124718;-73
2023/04/01 05:36:09;;;;;;;;;;;10.20;93.10;;;10.50;61.17;97316.91;4928097;28;123686;-73
2023/04/01 05:38:35;;;;;;;;;;;10.20;93.20;;;10.53;60.74;97322.56;4927723;28;120741;-72
2023/04/01 05:41:11;;;;;;;;;;;10.20;93.20;;;10.58;60.82;97325.06;4927976;28;119648;-73
2023/04/01 05:43:45;;;;;;;;;;;10.20;93.20;;;10.60;60.74;97311.72;4929274;28;123993;-76
2023/04/01 05:46:11;;;;;;;;;;;10.30;93.20;;;10.61;60.68;97313.34;4927494;28;124216;-73
2023/04/01 05:48:37;;;;;;;;;;;10.30;93.20;;;10.64;60.67;97311.00;4929205;28;119932;-73
2023/04/01 05:51:13;;;;;;;;;;;10.30;93.10;;;10.66;60.44;97305.94;4932478;28;118433;-72
2023/04/01 05:53:39;;;;;;;;;;;10.30;93.10;;;10.67;60.24;97302.84;4926001;28;124175;-73
2023/04/01 05:56:08;;;;;;;;;;;10.30;93.00;;;10.67;60.41;97307.56;4915363;28;123636;-72
2023/04/01 05:58:40;;;;;;;;;;;10.30;92.90;;;10.69;60.10;97308.00;4926112;28;119505;-73
2023/04/01 06:01:18;;;;;;;;;;;10.30;92.90;;;10.70;59.67;97306.88;4927704;28;118388;-73
2023/04/01 06:03:44;;;;;;;;;;;10.40;92.80;;;10.73;59.48;97306.16;4916287;28;123469;-73
2023/04/01 06:06:40;;;;;;;;;;;10.40;92.70;;;10.75;59.66;97303.88;4923968;28;123995;-73
2023/04/01 06:09:18;;;;;;;;;;;10.40;92.60;;;10.77;59.14;97288.56;4909744;28;119466;-73
2023/04/01 06:12:15;;;;;;;;;;;10.40;92.50;;;10.82;58.96;97285.50;4902527;28;118855;-73
2023/04/01 06:14:44;;;;;;;;;;;10.40;92.40;;;10.83;58.56;97295.44;4926082;28;124882;-73
2023/04/01 06:17:19;;;;;;;;;;;10.50;92.30;;;10.85;58.77;97289.53;4927661;28;124616;-77
2023/04/01 06:20:09;;;;;;;;;;;10.50;92.20;;;10.87;58.00;97303.00;4933722;28;120670;-75
2023/04/01 06:22:53;;;;;;;;;;;10.50;92.00;;;10.91;57.84;97271.56;4916516;28;118986;-76
2023/04/01 06:26:00;;;;;;;;;;;10.50;91.90;;;10.93;57.83;97285.81;4934045;28;123416;-77
2023/04/01 06:28:50;;;;;;;;;;;10.60;91.90;;;10.98;57.87;97288.31;4923120;28;124446;-78
2023/04/01 06:31:22;;;;;;;;;;;10.60;91.70;;;11.02;57.42;97297.53;4913911;28;118694;-77
2023/04/01 06:34:10;;;;;;;;;;;10.60;91.60;;;11.03;57.44;97290.84;4925494;28;119847;-75
2023/04/01 06:36:45;;;;;;;;;;;10.70;91.60;;;11.06;57.15;97314.22;4924114;28;124323;-75
2023/04/01 06:39:36;;;;;;;;;;;10.70;91.40;;;11.08;57.44;97295.31;4917914;28;124590;-75
2023/04/01 06:42:12;;;;;;;;;;;10.70;91.40;;;11.09;57.20;97321.00;4928160;28;120141;-75
2023/04/01 06:44:55;;;;;;;;;;;10.70;91.40;;;11.11;57.31;97304.88;4929745;28;117855;-74
2023/04/01 06:47:48;;;;;;;;;;;10.70;91.40;;;11.12;57.58;97298.16;4929668;28;123828;-75
2023/04/01 06:50:41;;;;;;;;;;;10.70;91.40;;;11.13;57.41;97295.06;4919907;28;123730;-75
2023/04/01 06:53:10;;;;;;;;;;;10.80;91.50;;;11.17;57.67;97289.63;4914515;28;120057;-76
2023/04/01 06:55:42;;;;;;;;;;;10.80;91.50;;;11.19;57.43;97288.13;4927081;28;118640;-76
2023/04/01 06:58:24;;;;;;;;;;;10.90;91.50;;;11.22;57.53;97292.13;4926721;28;124372;-75
2023/04/01 07:01:01;;;;;;;;;;;10.90;91.40;;;11.27;57.58;97305.72;4926479;28;124105;-76
2023/04/01 07:03:30;;;;;;;;;;;10.90;91.80;;;11.31;57.45;97292.78;4916731;28;119659;-81
2023/04/01 07:06:02;;;;;;;;;;;10.90;91.40;;;11.34;57.33;97294.03;4929533;28;118347;-75
2023/04/01 07:08:29;;;;;;;;;;;11.00;91.50;;;11.35;57.36;97303.94;4922464;28;124039;-76
2023/04/01 07:11:06;;;;;;;;;;;11.00;91.40;;;11.34;56.85;97311.44;4912655;28;123057;-77
2023/04/01 07:13:36;;;;;;;;;;;11.00;91.40;;;11.36;57.56;97300.81;4942285;28;119127;-76
2023/04/01 07:16:12;;;;;;;;;;;11.00;91.40;;;11.36;57.13;97298.03;4928657;28;118651;-77
2023/04/01 07:19:01;;;;;;;;;;;11.00;91.40;;;11.37;57.05;97316.25;4912417;28;124397;-76
2023/04/01 07:21:38;;;;;;;;;;;11.00;91.40;;;11.35;57.22;97306.72;4926503;28;124206;-76
2023/04/01 07:24:13;;;;;;;;;;;10.90;91.50;;;11.36;57.43;97311.06;4921461;28;120461;-76
2023/04/01 07:26:39;;;;;;;;;;;10.90;91.60;;;11.35;57.86;97318.56;4918235;28;119550;-75
2023/04/01 07:29:11;;;;;;;;;;;11.00;91.60;;;11.37;57.65;97309.94;4911921;28;124110;-76
2023/04/01 07:31:59;;;;;;;;;;;11.00;91.60;;;11.38;57.83;97334.44;4923393;28;123707;-75
2023/04/01 07:34:28;;;;;;;;;;;11.00;91.70;;;11.39;57.94;97311.19;4927773;28;120174;-76
2023/04/01 07:37:13;;;;;;;;;;;11.00;91.70;;;11.41;57.73;97328.19;4919316;28;119340;-76
2023/04/01 07:40:10;;;;;;;;;;;11.00;91.70;;;11.40;57.74;97329.38;4915060;28;123927;-75
2023/04/01 07:43:01;;;;;;;;;;;11.10;91.70;;;11.38;57.65;97315.09;4924482;28;124159;-74
2023/04/01 07:45:36;;;;;;;;;;;11.00;91.60;;;11.39;57.82;97324.19;4917625;28;119490;-76
2023/04/01 07:48:31;;;;;;;;;;;11.10;91.70;;;11.40;57.87;97332.13;4911300;28;117912;-76
2023/04/01 07:51:03;;;;;;;;;;;11.00;91.60;;;11.40;57.99;97331.34;4922074;28;124251;-75
2023/04/01 07:53:59;;;;;;;;;;;11.10;91.70;;;11.42;57.75;97335.34;4919243;28;124124;-75
2023/04/01 07:56:28;;;;;;;;;;;11.10;91.70;;;11.42;57.51;97320.72;4916897;28;122005;-76
2023/04/01 07:59:00;;;;;;;;;;;11.10;91.60;;;11.44;57.26;97327.50;4921464;28;119085;-78
2023/04/01 08:01:36;;;;;;;;;;;11.10;91.60;;;11.46;57.79;97330.72;4925730;28;124747;-76
2023/04/01 08:04:25;;;;;;;;;;;11.10;91.60;;;11.49;57.46;97318.94;4923096;28;124185;-75
2023/04/01 08:07:17;;;;;;;;;;;11.10;91.50;;;11.50;57.58;97323.31;4916394;28;118936;-76
2023/04/01 08:10:16;;;;;;;;;;;11.20;91.60;;;11.52;57.30;97344.28;4904564;28;118324;-77
2023/04/01 08:13:03;;;;;;;;;;;11.20;91.60;;;11.50;57.86;97331.63;4911081;28;123957;-76
2023/04/01 08:16:03;;;;;;;;;;;11.20;91.70;;;11.50;57.52;97348.22;4926037;28;124179;-76
2023/04/01 08:19:42;;;;;;;;;;;11.20;91.60;;;11.54;57.60;97325.38;4932056;28;119178;-76
2023/04/01 08:22:19;;;;;;;;;;;11.20;91.70;;;11.55;57.87;97326.97;4907844;28;118742;-76
2023/04/01 08:24:49;;;;;;;;;;;11.20;91.80;;;11.57;57.96;97321.91;4909543;28;123013;-76
2023/04/01 08:27:34;;;;;;;;;;;11.20;91.70;;;11.58;58.10;97334.56;4922388;28;123961;-77
2023/04/01 08:30:22;;;;;;;;;;;11.20;91.80;;;11.59;57.81;97355.53;4918735;28;119262;-80
2023/04/01 08:33:13;;;;;;;;;;;11.30;91.90;;;11.61;58.12;97333.88;4922866;28;118909;-77
2023/04/01 08:35:54;;;;;;;;;;;11.20;91.90;;;11.61;58.69;97339.41;4928351;28;123620;-77
2023/04/01 08:38:37;;;;;;;;;;;11.20;92.10;;;11.61;58.73;97344.94;4929352;28;123394;-78
2023/04/01 08:41:37;;;;;;;;;;;11.30;92.20;;;11.62;59.16;97341.00;4921556;28;119503;-77
2023/04/01 08:44:46;;;;;;;;;;;11.30;92.50;;;11.59;59.77;97323.16;4924468;28;118807;-75
2023/04/01 08:47:34;;;;;;;;;;;11.30;92.50;;;11.56;59.81;97361.78;4939945;28;123629;-77
2023/04/01 08:50:06;;;;;;;;;;;11.30;92.80;;;11.54;60.08;97347.50;4920522;28;124476;-78
2023/04/01 08:52:37;;;;;;;;;;;11.30;92.90;;;11.53;60.51;97351.44;4943290;28;118704;-76
2023/04/01 08:55:25;;;;;;;;;;;11.20;93.20;;;11.49;60.90;97343.03;4921025;28;119354;-75
2023/04/01 08:58:03;;;;;;;;;;;11.20;93.30;;;11.46;60.94;97329.91;4927200;28;124593;-75
2023/04/01 09:00:48;;;;;;;;;;;9.90;93.30;;;11.42;61.13;97335.34;4926509;28;123952;-76
2023/04/01 09:03:39;;;;;;;;;;;11.10;93.40;;;11.39;61.44;97332.47;4928167;28;118895;-76
2023/04/01 09:06:49;;;;;;;;;;;11.10;93.60;;;11.35;61.25;97335.16;4921123;28;119264;-85
2023/04/01 09:09:25;;;;;;;;;;;11.10;93.80;;;11.35;61.46;97328.81;4924044;28;118155;-78
2023/04/01 09:12:13;;;;;;;;;;;11.10;93.80;;;11.33;61.46;97326.41;4931279;28;123451;-80
2023/04/01 09:15:01;;;;;;;;;;;11.00;93.80;;;11.33;61.54;97339.44;4930097;28;120818;-85
2023/04/01 09:18:01;;;;;;;;;;;11.00;93.70;;;11.37;61.40;97349.44;4919460;28;119776;-77
2023/04/01 09:20:42;;;;;;;;;;;11.00;93.90;;;11.37;61.39;97341.13;4928476;28;125035;-75
2023/04/01 09:23:29;;;;;;;;;;;11.00;93.80;;;11.38;61.50;97334.44;4929293;28;123804;-80
2023/04/01 09:26:13;;;;;;;;;;;11.10;93.80;;;11.42;61.22;97345.63;4921811;28;119585;-79
2023/04/01 09:28:45;;;;;;;;;;;11.10;93.80;;;11.42;60.97;97363.00;4929333;28;118710;-78
2023/04/01 09:31:39;;;;;;;;;;;11.10;93.60;;;11.47;60.76;97343.41;4925536;28;123947;-76
2023/04/01 09:34:14;;;;;;;;;;;11.10;93.50;;;11.52;60.48;97344.28;4930329;28;124062;-76
2023/04/01 09:36:44;;;;;;;;;;;11.10;93.40;;;11.58;60.46;97353.91;4920528;28;118381;-84
2023/04/01 09:39:32;;;;;;;;;;;11.20;93.50;;;11.65;60.39;97349.38;4929689;28;118151;-77
2023/04/01 09:42:14;;;;;;;;;;;11.30;93.50;;;11.70;59.61;97345.56;4927772;28;124261;-76
2023/04/01 09:44:53;;;;;;;;;;;11.30;93.10;;;11.69;59.79;97363.34;4915460;28;124184;-77
2023/04/01 09:47:56;;;;;;;;;;;11.30;93.00;;;11.68;59.72;97365.28;4925580;28;119663;-74
2023/04/01 09:50:32;;;;;;;;;;;11.30;93.00;;;11.69;59.35;97360.56;4915361;28;118125;-77
2023/04/01 09:53:26;;;;;;;;;;;11.30;92.70;;;11.65;59.42;97345.81;4947232;28;124283;-77
2023/04/01 09:56:29;;;;;;;;;;;11.40;92.80;;;11.67;59.29;97369.22;4930127;28;123099;-78
2023/04/01 09:59:15;;;;;;;;;;;11.30;92.70;;;11.65;59.02;97365.97;4946133;28;118916;-76
2023/04/01 10:02:22;;;;;;;;;;;11.30;92.60;;;11.66;59.24;97375.09;4930120;28;118277;-76
2023/04/01 10:05:33;;;;;;;;;;;11.30;92.60;;;11.69;57.95;97360.56;4918385;28;124796;-75
2023/04/01 10:08:10;;;;;;;;;;;11.30;92.20;;;11.69;58.03;97382.69;4939156;28;123990;-78
2023/04/01 10:10:57;;;;;;;;;;;11.30;92.00;;;11.67;57.61;97390.53;4921884;28;120876;-76
2023/04/01 10:13:23;;;;;;;;;;;11.40;91.90;;;11.67;57.52;97377.50;4921381;28;119694;-76
2023/04/01 10:16:00;;;;;;;;;;;11.50;91.80;;;11.68;56.89;97386.59;4926859;28;124097;-76
2023/04/01 10:18:26;;;;;;;;;;;11.40;91.40;;;11.68;56.97;97362.50;4936766;28;123385;-77
2023/04/01 10:21:14;;;;;;;;;;;11.40;91.40;;;11.72;57.11;97366.19;4927098;28;118426;-76
2023/04/01 10:23:58;;;;;;;;;;;11.40;91.60;;;11.79;57.17;97368.31;4927242;28;118578;-76
2023/04/01 10:26:56;;;;;;;;;;;11.40;91.60;;;11.86;56.74;97360.25;4908168;28;124512;-75
2023/04/01 10:29:38;;;;;;;;;;;11.40;91.30;;;11.92;56.67;97375.41;4914334;28;124237;-76
2023/04/01 10:32:27;;;;;;;;;;;11.50;91.40;;;12.02;56.55;97356.69;4920628;28;119444;-76
2023/04/01 10:35:05;;;;;;;;;;;11.60;91.40;;;12.10;56.41;97392.47;4908718;28;116727;-76
2023/04/01 10:38:05;;;;;;;;;;;11.70;91.20;;;12.13;55.83;97379.88;4924908;28;124851;-76
2023/04/01 10:40:58;;;;;;;;;;;11.70;90.90;;;12.11;55.99;97360.06;4930369;28;123094;-77
2023/04/01 10:44:01;;;;;;;;;;;11.70;90.80;;;12.11;55.85;97396.84;4924737;28;120170;-78
2023/04/01 10:47:02;;;;;;;;;;;11.80;90.80;;;12.11;55.92;97362.81;4914911;28;118879;-75
2023/04/01 10:50:16;;;;;;;;;;;11.80;90.60;;;12.15;54.98;97366.50;4928269;28;124429;-75
2023/04/01 10:53:13;;;;;;;;;;;11.80;90.50;;;12.19;55.25;97361.03;4927377;28;124176;-76
2023/04/01 10:56:00;;;;;;;;;;;11.80;90.40;;;12.22;55.40;97382.47;4927682;28;119455;-75
2023/04/01 10:58:45;;;;;;;;;;;11.90;90.50;;;12.21;55.62;97370.59;4927360;28;118551;-76
2023/04/01 11:01:33;;;;;;;;;;;11.90;90.60;;;12.20;55.63;97369.00;4942646;28;124310;-77
2023/04/01 11:04:37;;;;;;;;;;;11.90;90.50;;;12.22;55.75;97376.94;4919759;28;123787;-76
2023/04/01 11:07:45;;;;;;;;;;;11.90;90.60;;;12.26;55.67;97367.56;4928172;28;119479;-74
2023/04/01 11:10:36;;;;;;;;;;;12.00;90.70;;;12.26;55.79;97373.09;4927913;28;119402;-75
2023/04/01 11:13:48;;;;;;;;;;;12.00;90.60;;;12.27;55.10;97396.84;4900123;28;123254;-75
2023/04/01 11:16:35;;;;;;;;;;;11.90;90.50;;;12.32;55.26;97371.66;4920003;28;123887;-75
2023/04/01 11:19:39;;;;;;;;;;;12.00;90.40;;;12.38;55.14;97392.41;4929872;28;119544;-77
2023/04/01 11:22:21;;;;;;;;;;;12.00;90.40;;;12.47;54.73;97397.75;4927793;28;119035;-76
2023/04/01 11:25:17;;;;;;;;;;;12.10;90.20;;;12.55;54.25;97382.09;4927528;28;124065;-77
2023/04/01 11:27:59;;;;;;;;;;;12.10;90.00;;;12.62;53.87;97385.00;4929421;28;123671;-75
2023/04/01 11:30:47;;;;;;;;;;;12.20;89.90;;;12.67;53.31;97384.72;4928480;28;119488;-75
2023/04/01 11:33:30;;;;;;;;;;;12.30;89.00;;;12.73;53.64;97390.78;4956203;28;117693;-77
2023/04/01 11:36:11;;;;;;;;;;;12.30;89.40;;;12.81;53.43;97390.63;4915481;28;123381;-74
2023/04/01 11:38:57;;;;;;;;;;;12.40;89.20;;;12.93;53.26;97388.88;4940263;28;124306;-74
2023/04/01 11:41:26;;;;;;;;;;;12.50;89.10;;;13.01;52.96;97385.09;4915177;28;119483;-75
2023/04/01 11:44:22;;;;;;;;;;;12.60;88.70;;;13.05;52.47;97397.84;4941009;28;118670;-76
2023/04/01 11:47:13;;;;;;;;;;;12.60;88.30;;;13.12;52.47;97383.34;4928294;28;123562;-75
2023/04/01 11:49:57;;;;;;;;;;;12.70;88.20;;;13.14;52.14;97383.00;4928379;28;124175;-75
2023/04/01 11:52:46;;;;;;;;;;;12.70;87.50;;;13.18;51.70;97379.09;4926514;28;119532;-75
2023/04/01 11:55:47;;;;;;;;;;;12.80;87.20;;;13.15;51.66;97381.81;4936304;28;118722;-77